Aviation Digital Data Service (ADDS)

Output produced by METARs form (1712 UTC 19 September 2018)
found at http://www.aviationweather.gov/metar/data/
 
METAR text: KDUJ 191653Z AUTO VRB03KT 10SM CLR 23/16 A3004 RMK AO2 SLP162 T02280156 $
Conditions at: KDUJ (DU BOIS , PA, US) observed 1653 UTC 19 September 2018
Temperature: 22.8°C (73°F)
Dewpoint: 15.6°C (60°F) [RH = 64%]
Pressure (altimeter): 30.04 inches Hg (1017.4 mb)
[Sea-level pressure: 1016.2 mb]
Winds: variable direction winds at 3 MPH (3 knots; 1.5 m/s)
Visibility: 10 or more miles (16+ km)
Ceiling: at least 12,000 feet AGL
Clouds: sky clear below 12,000 feet AGL
Weather:
SOME DATA ABOVE MAY BE INACCURATE!!!
"$" is an indication the sensor requires maintenance

METAR text: KDUJ 191553Z AUTO 00000KT 10SM CLR 21/16 A3004 RMK AO2 SLP164 T02110161 $
Conditions at: KDUJ (DU BOIS , PA, US) observed 1553 UTC 19 September 2018
Temperature: 21.1°C (70°F)
Dewpoint: 16.1°C (61°F) [RH = 73%]
Pressure (altimeter): 30.04 inches Hg (1017.4 mb)
[Sea-level pressure: 1016.4 mb]
Winds: calm
Visibility: 10 or more miles (16+ km)
Ceiling: at least 12,000 feet AGL
Clouds: sky clear below 12,000 feet AGL
Weather:
SOME DATA ABOVE MAY BE INACCURATE!!!
"$" is an indication the sensor requires maintenance

METAR text: KDUJ 191453Z AUTO VRB05KT 10SM SCT012 BKN095 19/16 A3006 RMK AO2 SLP167 T01890156 51015 $
Conditions at: KDUJ (DU BOIS , PA, US) observed 1453 UTC 19 September 2018
Temperature: 18.9°C (66°F)
Dewpoint: 15.6°C (60°F) [RH = 81%]
Pressure (altimeter): 30.06 inches Hg (1018.0 mb)
[Sea-level pressure: 1016.7 mb]
Winds: variable direction winds at 6 MPH (5 knots; 2.6 m/s)
Visibility: 10 or more miles (16+ km)
Ceiling: 9500 feet AGL
Clouds: scattered clouds at 1200 feet AGL
broken clouds at 9500 feet AGL
Weather:
SOME DATA ABOVE MAY BE INACCURATE!!!
"$" is an indication the sensor requires maintenance

METAR text: KDUJ 191445Z AUTO 34007KT 10SM SCT010 SCT075 OVC095 18/15 A3006 RMK AO2 T01830150 $
Conditions at: KDUJ (DU BOIS , PA, US) observed 1445 UTC 19 September 2018
Temperature: 18.3°C (65°F)
Dewpoint: 15.0°C (59°F) [RH = 81%]
Pressure (altimeter): 30.06 inches Hg (1018.0 mb)
Winds: from the NNW (340 degrees) at 8 MPH (7 knots; 3.6 m/s)
Visibility: 10 or more miles (16+ km)
Ceiling: 9500 feet AGL
Clouds: scattered clouds at 1000 feet AGL
scattered clouds at 7500 feet AGL
overcast cloud deck at 9500 feet AGL
Weather:
SOME DATA ABOVE MAY BE INACCURATE!!!
"$" is an indication the sensor requires maintenance

METAR text: KDUJ 191353Z AUTO 32008KT 10SM SCT006 BKN011 OVC075 19/17 A3005 RMK AO2 CIG 008V013 SLP165 T01890167 $
Conditions at: KDUJ (DU BOIS , PA, US) observed 1353 UTC 19 September 2018
Temperature: 18.9°C (66°F)
Dewpoint: 16.7°C (62°F) [RH = 87%]
Pressure (altimeter): 30.05 inches Hg (1017.7 mb)
[Sea-level pressure: 1016.5 mb]
Winds: from the NW (320 degrees) at 9 MPH (8 knots; 4.1 m/s)
Visibility: 10 or more miles (16+ km)
Ceiling: 1100 feet AGL
Clouds: scattered clouds at 600 feet AGL
broken clouds at 1100 feet AGL
overcast cloud deck at 7500 feet AGL
Weather:
SOME DATA ABOVE MAY BE INACCURATE!!!
"$" is an indication the sensor requires maintenance

METAR text: KDUJ 191344Z AUTO 31006KT 8SM BKN005 OVC075 18/17 A3004 RMK AO2 CIG 004V009 T01830167 $
Conditions at: KDUJ (DU BOIS , PA, US) observed 1344 UTC 19 September 2018
Temperature: 18.3°C (65°F)
Dewpoint: 16.7°C (62°F) [RH = 90%]
Pressure (altimeter): 30.04 inches Hg (1017.4 mb)
Winds: from the NW (310 degrees) at 7 MPH (6 knots; 3.1 m/s)
Visibility: 8 miles (13 km)
Ceiling: 500 feet AGL
Clouds: broken clouds at 500 feet AGL
overcast cloud deck at 7500 feet AGL
Weather:
SOME DATA ABOVE MAY BE INACCURATE!!!
"$" is an indication the sensor requires maintenance

METAR text: KDUJ 191253Z AUTO 29004KT 4SM BR OVC004 17/17 A3003 RMK AO2 SLP157 T01720167
Conditions at: KDUJ (DU BOIS , PA, US) observed 1253 UTC 19 September 2018
Temperature: 17.2°C (63°F)
Dewpoint: 16.7°C (62°F) [RH = 97%]
Pressure (altimeter): 30.03 inches Hg (1017.0 mb)
[Sea-level pressure: 1015.7 mb]
Winds: from the WNW (290 degrees) at 5 MPH (4 knots; 2.1 m/s)
Visibility: 4 miles ( 6 km)
Ceiling: 400 feet AGL
Clouds: overcast cloud deck at 400 feet AGL
Weather: BR  (mist)

METAR text: KDUJ 191232Z AUTO 28006KT 3SM BR OVC005 17/17 A3002 RMK AO2 T01720167
Conditions at: KDUJ (DU BOIS , PA, US) observed 1232 UTC 19 September 2018
Temperature: 17.2°C (63°F)
Dewpoint: 16.7°C (62°F) [RH = 97%]
Pressure (altimeter): 30.02 inches Hg (1016.7 mb)
Winds: from the W (280 degrees) at 7 MPH (6 knots; 3.1 m/s)
Visibility: 3 miles ( 5 km)
Ceiling: 500 feet AGL
Clouds: overcast cloud deck at 500 feet AGL
Weather: BR  (mist)

METAR text: KDUJ 191219Z AUTO 27005KT 2SM BR BKN006 17/16 A3002 RMK AO2 T01720161
Conditions at: KDUJ (DU BOIS , PA, US) observed 1219 UTC 19 September 2018
Temperature: 17.2°C (63°F)
Dewpoint: 16.1°C (61°F) [RH = 93%]
Pressure (altimeter): 30.02 inches Hg (1016.7 mb)
Winds: from the W (270 degrees) at 6 MPH (5 knots; 2.6 m/s)
Visibility: 2.00 miles (3.22 km)
Ceiling: 600 feet AGL
Clouds: broken clouds at 600 feet AGL
Weather: BR  (mist)

METAR text: KDUJ 191153Z AUTO 27003KT 2SM BR SCT006 17/16 A3001 RMK AO2 SLP152 T01670161 10178 20161 51019
Conditions at: KDUJ (DU BOIS , PA, US) observed 1153 UTC 19 September 2018
Temperature: 16.7°C (62°F)
Dewpoint: 16.1°C (61°F) [RH = 96%]
Pressure (altimeter): 30.01 inches Hg (1016.3 mb)
[Sea-level pressure: 1015.2 mb]
Winds: from the W (270 degrees) at 3 MPH (3 knots; 1.5 m/s)
Visibility: 2.00 miles (3.22 km)
Ceiling: at least 12,000 feet AGL
Clouds: scattered clouds at 600 feet AGL
Weather: BR  (mist)

METAR text: KDUJ 191053Z AUTO 00000KT 1 1/4SM BR BKN007 17/16 A2999 RMK AO2 SLP144 T01670156
Conditions at: KDUJ (DU BOIS , PA, US) observed 1053 UTC 19 September 2018
Temperature: 16.7°C (62°F)
Dewpoint: 15.6°C (60°F) [RH = 93%]
Pressure (altimeter): 29.99 inches Hg (1015.7 mb)
[Sea-level pressure: 1014.4 mb]
Winds: calm
Visibility: 1.25 miles (2.01 km)
Ceiling: 700 feet AGL
Clouds: broken clouds at 700 feet AGL
Weather: BR  (mist)

METAR text: KDUJ 191040Z AUTO 00000KT 1 3/4SM BR SCT008 16/16 A2999 RMK AO2 T01610156
Conditions at: KDUJ (DU BOIS , PA, US) observed 1040 UTC 19 September 2018
Temperature: 16.1°C (61°F)
Dewpoint: 15.6°C (60°F) [RH = 97%]
Pressure (altimeter): 29.99 inches Hg (1015.7 mb)
Winds: calm
Visibility: 1.75 miles (2.82 km)
Ceiling: at least 12,000 feet AGL
Clouds: scattered clouds at 800 feet AGL
Weather: BR  (mist)

METAR text: KDUJ 191016Z AUTO 28004KT 5SM BR SCT005 16/16 A2999 RMK AO2 T01610156
Conditions at: KDUJ (DU BOIS , PA, US) observed 1016 UTC 19 September 2018
Temperature: 16.1°C (61°F)
Dewpoint: 15.6°C (60°F) [RH = 97%]
Pressure (altimeter): 29.99 inches Hg (1015.7 mb)
Winds: from the W (280 degrees) at 5 MPH (4 knots; 2.1 m/s)
Visibility: 5 miles ( 8 km)
Ceiling: at least 12,000 feet AGL
Clouds: scattered clouds at 500 feet AGL
Weather: BR  (mist)

METAR text: KDUJ 190953Z AUTO 30004KT 5SM BR OVC005 17/16 A2997 RMK AO2 SLP139 T01670161
Conditions at: KDUJ (DU BOIS , PA, US) observed 0953 UTC 19 September 2018
Temperature: 16.7°C (62°F)
Dewpoint: 16.1°C (61°F) [RH = 96%]
Pressure (altimeter): 29.97 inches Hg (1015.0 mb)
[Sea-level pressure: 1013.9 mb]
Winds: from the WNW (300 degrees) at 5 MPH (4 knots; 2.1 m/s)
Visibility: 5 miles ( 8 km)
Ceiling: 500 feet AGL
Clouds: overcast cloud deck at 500 feet AGL
Weather: BR  (mist)

METAR text: KDUJ 190935Z AUTO 29004KT 5SM BR BKN005 17/16 A2997 RMK AO2 T01670161
Conditions at: KDUJ (DU BOIS , PA, US) observed 0935 UTC 19 September 2018
Temperature: 16.7°C (62°F)
Dewpoint: 16.1°C (61°F) [RH = 96%]
Pressure (altimeter): 29.97 inches Hg (1015.0 mb)
Winds: from the WNW (290 degrees) at 5 MPH (4 knots; 2.1 m/s)
Visibility: 5 miles ( 8 km)
Ceiling: 500 feet AGL
Clouds: broken clouds at 500 feet AGL
Weather: BR  (mist)

METAR text: KDUJ 190911Z AUTO 34003KT 4SM BR OVC004 17/17 A2996 RMK AO2 T01720167
Conditions at: KDUJ (DU BOIS , PA, US) observed 0911 UTC 19 September 2018
Temperature: 17.2°C (63°F)
Dewpoint: 16.7°C (62°F) [RH = 97%]
Pressure (altimeter): 29.96 inches Hg (1014.6 mb)
Winds: from the NNW (340 degrees) at 3 MPH (3 knots; 1.5 m/s)
Visibility: 4 miles ( 6 km)
Ceiling: 400 feet AGL
Clouds: overcast cloud deck at 400 feet AGL
Weather: BR  (mist)

METAR text: KDUJ 190903Z AUTO 35004KT 2SM BR BKN002 OVC006 17/17 A2996 RMK AO2 T01720167
Conditions at: KDUJ (DU BOIS , PA, US) observed 0903 UTC 19 September 2018
Temperature: 17.2°C (63°F)
Dewpoint: 16.7°C (62°F) [RH = 97%]
Pressure (altimeter): 29.96 inches Hg (1014.6 mb)
Winds: from the N (350 degrees) at 5 MPH (4 knots; 2.1 m/s)
Visibility: 2.00 miles (3.22 km)
Ceiling: 200 feet AGL
Clouds: broken clouds at 200 feet AGL
overcast cloud deck at 600 feet AGL
Weather: BR  (mist)

METAR text: KDUJ 190853Z AUTO 34003KT 1/2SM FG VV002 17/17 A2995 RMK AO2 SLP130 T01720167 55000
Conditions at: KDUJ (DU BOIS , PA, US) observed 0853 UTC 19 September 2018
Temperature: 17.2°C (63°F)
Dewpoint: 16.7°C (62°F) [RH = 97%]
Pressure (altimeter): 29.95 inches Hg (1014.3 mb)
[Sea-level pressure: 1013.0 mb]
Winds: from the NNW (340 degrees) at 3 MPH (3 knots; 1.5 m/s)
Visibility: 0.50 miles (0.80 km)
Ceiling: indefinite ceiling with vertical visibility of 200 feet AGL
Clouds: obscured sky
Weather: FG  (fog)

METAR text: KDUJ 190846Z AUTO 33003KT 1/2SM FG VV002 17/17 A2995 RMK AO2 T01720167
Conditions at: KDUJ (DU BOIS , PA, US) observed 0846 UTC 19 September 2018
Temperature: 17.2°C (63°F)
Dewpoint: 16.7°C (62°F) [RH = 97%]
Pressure (altimeter): 29.95 inches Hg (1014.3 mb)
Winds: from the NNW (330 degrees) at 3 MPH (3 knots; 1.5 m/s)
Visibility: 0.50 miles (0.80 km)
Ceiling: indefinite ceiling with vertical visibility of 200 feet AGL
Clouds: obscured sky
Weather: FG  (fog)

METAR text: KDUJ 190837Z AUTO 32003KT 1SM BR OVC002 17/17 A2995 RMK AO2 T01720167
Conditions at: KDUJ (DU BOIS , PA, US) observed 0837 UTC 19 September 2018
Temperature: 17.2°C (63°F)
Dewpoint: 16.7°C (62°F) [RH = 97%]
Pressure (altimeter): 29.95 inches Hg (1014.3 mb)
Winds: from the NW (320 degrees) at 3 MPH (3 knots; 1.5 m/s)
Visibility: 1.00 miles (1.61 km)
Ceiling: 200 feet AGL
Clouds: overcast cloud deck at 200 feet AGL
Weather: BR  (mist)

METAR text: KDUJ 190801Z AUTO 31004KT 1/2SM FG VV002 18/17 A2995 RMK AO2 T01780172
Conditions at: KDUJ (DU BOIS , PA, US) observed 0801 UTC 19 September 2018
Temperature: 17.8°C (64°F)
Dewpoint: 17.2°C (63°F) [RH = 96%]
Pressure (altimeter): 29.95 inches Hg (1014.3 mb)
Winds: from the NW (310 degrees) at 5 MPH (4 knots; 2.1 m/s)
Visibility: 0.50 miles (0.80 km)
Ceiling: indefinite ceiling with vertical visibility of 200 feet AGL
Clouds: obscured sky
Weather: FG  (fog)

METAR text: KDUJ 190753Z AUTO 32003KT 1/4SM FG VV002 18/17 A2994 RMK AO2 SLP128 T01780172
Conditions at: KDUJ (DU BOIS , PA, US) observed 0753 UTC 19 September 2018
Temperature: 17.8°C (64°F)
Dewpoint: 17.2°C (63°F) [RH = 96%]
Pressure (altimeter): 29.94 inches Hg (1014.0 mb)
[Sea-level pressure: 1012.8 mb]
Winds: from the NW (320 degrees) at 3 MPH (3 knots; 1.5 m/s)
Visibility: 0.25 miles (0.40 km)
Ceiling: indefinite ceiling with vertical visibility of 200 feet AGL
Clouds: obscured sky
Weather: FG  (fog)

METAR text: KDUJ 190726Z AUTO 31004KT 1/2SM FG OVC002 18/17 A2995 RMK AO2 T01780172
Conditions at: KDUJ (DU BOIS , PA, US) observed 0726 UTC 19 September 2018
Temperature: 17.8°C (64°F)
Dewpoint: 17.2°C (63°F) [RH = 96%]
Pressure (altimeter): 29.95 inches Hg (1014.3 mb)
Winds: from the NW (310 degrees) at 5 MPH (4 knots; 2.1 m/s)
Visibility: 0.50 miles (0.80 km)
Ceiling: 200 feet AGL
Clouds: overcast cloud deck at 200 feet AGL
Weather: FG  (fog)

METAR text: KDUJ 190710Z AUTO 33006KT 1SM BR OVC003 18/17 A2995 RMK AO2 T01780172
Conditions at: KDUJ (DU BOIS , PA, US) observed 0710 UTC 19 September 2018
Temperature: 17.8°C (64°F)
Dewpoint: 17.2°C (63°F) [RH = 96%]
Pressure (altimeter): 29.95 inches Hg (1014.3 mb)
Winds: from the NNW (330 degrees) at 7 MPH (6 knots; 3.1 m/s)
Visibility: 1.00 miles (1.61 km)
Ceiling: 300 feet AGL
Clouds: overcast cloud deck at 300 feet AGL
Weather: BR  (mist)

METAR text: KDUJ 190659Z AUTO 31006KT 2SM BR BKN003 18/17 A2995 RMK AO2 T01780172
Conditions at: KDUJ (DU BOIS , PA, US) observed 0659 UTC 19 September 2018
Temperature: 17.8°C (64°F)
Dewpoint: 17.2°C (63°F) [RH = 96%]
Pressure (altimeter): 29.95 inches Hg (1014.3 mb)
Winds: from the NW (310 degrees) at 7 MPH (6 knots; 3.1 m/s)
Visibility: 2.00 miles (3.22 km)
Ceiling: 300 feet AGL
Clouds: broken clouds at 300 feet AGL
Weather: BR  (mist)

METAR text: KDUJ 190653Z AUTO 30005KT 1/2SM FG VV003 17/17 A2995 RMK AO2 SLP129 T01720167
Conditions at: KDUJ (DU BOIS , PA, US) observed 0653 UTC 19 September 2018
Temperature: 17.2°C (63°F)
Dewpoint: 16.7°C (62°F) [RH = 97%]
Pressure (altimeter): 29.95 inches Hg (1014.3 mb)
[Sea-level pressure: 1012.9 mb]
Winds: from the WNW (300 degrees) at 6 MPH (5 knots; 2.6 m/s)
Visibility: 0.50 miles (0.80 km)
Ceiling: indefinite ceiling with vertical visibility of 300 feet AGL
Clouds: obscured sky
Weather: FG  (fog)

METAR text: KDUJ 190646Z AUTO 27005KT 1/4SM FG VV004 17/16 A2995 RMK AO2 T01670161
Conditions at: KDUJ (DU BOIS , PA, US) observed 0646 UTC 19 September 2018
Temperature: 16.7°C (62°F)
Dewpoint: 16.1°C (61°F) [RH = 96%]
Pressure (altimeter): 29.95 inches Hg (1014.3 mb)
Winds: from the W (270 degrees) at 6 MPH (5 knots; 2.6 m/s)
Visibility: 0.25 miles (0.40 km)
Ceiling: indefinite ceiling with vertical visibility of 400 feet AGL
Clouds: obscured sky
Weather: FG  (fog)

METAR text: KDUJ 190643Z AUTO 27005KT 3/4SM BR VV005 17/16 A2994 RMK AO2 T01670161
Conditions at: KDUJ (DU BOIS , PA, US) observed 0643 UTC 19 September 2018
Temperature: 16.7°C (62°F)
Dewpoint: 16.1°C (61°F) [RH = 96%]
Pressure (altimeter): 29.94 inches Hg (1014.0 mb)
Winds: from the W (270 degrees) at 6 MPH (5 knots; 2.6 m/s)
Visibility: 0.75 miles (1.21 km)
Ceiling: indefinite ceiling with vertical visibility of 500 feet AGL
Clouds: obscured sky
Weather: BR  (mist)

METAR text: KDUJ 190641Z AUTO 27004KT 1 1/4SM BR FEW004 FEW008 17/17 A2994 RMK AO2 T01720167
Conditions at: KDUJ (DU BOIS , PA, US) observed 0641 UTC 19 September 2018
Temperature: 17.2°C (63°F)
Dewpoint: 16.7°C (62°F) [RH = 97%]
Pressure (altimeter): 29.94 inches Hg (1014.0 mb)
Winds: from the W (270 degrees) at 5 MPH (4 knots; 2.1 m/s)
Visibility: 1.25 miles (2.01 km)
Ceiling: at least 12,000 feet AGL
Clouds: few clouds at 400 feet AGL
few clouds at 800 feet AGL
Weather: BR  (mist)

METAR text: KDUJ 190629Z AUTO 26005KT 2 1/2SM BR CLR 17/17 A2995 RMK AO2 T01720167
Conditions at: KDUJ (DU BOIS , PA, US) observed 0629 UTC 19 September 2018
Temperature: 17.2°C (63°F)
Dewpoint: 16.7°C (62°F) [RH = 97%]
Pressure (altimeter): 29.95 inches Hg (1014.3 mb)
Winds: from the W (260 degrees) at 6 MPH (5 knots; 2.6 m/s)
Visibility: 2.50 miles (4.02 km)
Ceiling: at least 12,000 feet AGL
Clouds: sky clear below 12,000 feet AGL
Weather: BR  (mist)

METAR text: KDUJ 190617Z AUTO 26004KT 1SM BR CLR 17/17 A2995 RMK AO2 T01720167
Conditions at: KDUJ (DU BOIS , PA, US) observed 0617 UTC 19 September 2018
Temperature: 17.2°C (63°F)
Dewpoint: 16.7°C (62°F) [RH = 97%]
Pressure (altimeter): 29.95 inches Hg (1014.3 mb)
Winds: from the W (260 degrees) at 5 MPH (4 knots; 2.1 m/s)
Visibility: 1.00 miles (1.61 km)
Ceiling: at least 12,000 feet AGL
Clouds: sky clear below 12,000 feet AGL
Weather: BR  (mist)

METAR text: KDUJ 190553Z AUTO 29004KT 7SM CLR 17/17 A2995 RMK AO2 SLP132 T01720167 10217 20172 51002
Conditions at: KDUJ (DU BOIS , PA, US) observed 0553 UTC 19 September 2018
Temperature: 17.2°C (63°F)
Dewpoint: 16.7°C (62°F) [RH = 97%]
Pressure (altimeter): 29.95 inches Hg (1014.3 mb)
[Sea-level pressure: 1013.2 mb]
Winds: from the WNW (290 degrees) at 5 MPH (4 knots; 2.1 m/s)
Visibility: 7 miles (11 km)
Ceiling: at least 12,000 feet AGL
Clouds: sky clear below 12,000 feet AGL
Weather: automated observation with no human augmentation;
there may or may not be significant weather present at this time

METAR text: KDUJ 190453Z AUTO 29005KT 9SM CLR 18/17 A2995 RMK AO2 SLP129 T01830167 402560172
Conditions at: KDUJ (DU BOIS , PA, US) observed 0453 UTC 19 September 2018
Temperature: 18.3°C (65°F)
Dewpoint: 16.7°C (62°F) [RH = 90%]
Pressure (altimeter): 29.95 inches Hg (1014.3 mb)
[Sea-level pressure: 1012.9 mb]
Winds: from the WNW (290 degrees) at 6 MPH (5 knots; 2.6 m/s)
Visibility: 9 miles (14 km)
Ceiling: at least 12,000 feet AGL
Clouds: sky clear below 12,000 feet AGL
Weather: automated observation with no human augmentation;
there may or may not be significant weather present at this time

METAR text: KDUJ 190353Z AUTO 00000KT 10SM CLR 19/18 A2996 RMK AO2 SLP134 T01890178
Conditions at: KDUJ (DU BOIS , PA, US) observed 0353 UTC 19 September 2018
Temperature: 18.9°C (66°F)
Dewpoint: 17.8°C (64°F) [RH = 93%]
Pressure (altimeter): 29.96 inches Hg (1014.6 mb)
[Sea-level pressure: 1013.4 mb]
Winds: calm
Visibility: 10 or more miles (16+ km)
Ceiling: at least 12,000 feet AGL
Clouds: sky clear below 12,000 feet AGL
Weather: automated observation with no human augmentation;
there may or may not be significant weather present at this time

METAR text: KDUJ 190253Z AUTO 28003KT 10SM CLR 19/18 A2995 RMK AO2 SLP130 T01940178 52004
Conditions at: KDUJ (DU BOIS , PA, US) observed 0253 UTC 19 September 2018
Temperature: 19.4°C (67°F)
Dewpoint: 17.8°C (64°F) [RH = 90%]
Pressure (altimeter): 29.95 inches Hg (1014.3 mb)
[Sea-level pressure: 1013.0 mb]
Winds: from the W (280 degrees) at 3 MPH (3 knots; 1.5 m/s)
Visibility: 10 or more miles (16+ km)
Ceiling: at least 12,000 feet AGL
Clouds: sky clear below 12,000 feet AGL
Weather: automated observation with no human augmentation;
there may or may not be significant weather present at this time

METAR text: KDUJ 190153Z AUTO 24003KT 9SM CLR 19/18 A2994 RMK AO2 SLP130 T01890178
Conditions at: KDUJ (DU BOIS , PA, US) observed 0153 UTC 19 September 2018
Temperature: 18.9°C (66°F)
Dewpoint: 17.8°C (64°F) [RH = 93%]
Pressure (altimeter): 29.94 inches Hg (1014.0 mb)
[Sea-level pressure: 1013.0 mb]
Winds: from the WSW (240 degrees) at 3 MPH (3 knots; 1.5 m/s)
Visibility: 9 miles (14 km)
Ceiling: at least 12,000 feet AGL
Clouds: sky clear below 12,000 feet AGL
Weather: automated observation with no human augmentation;
there may or may not be significant weather present at this time

METAR text: KDUJ 190053Z AUTO 27004KT 10SM CLR 21/18 A2994 RMK AO2 SLP127 T02110178
Conditions at: KDUJ (DU BOIS , PA, US) observed 0053 UTC 19 September 2018
Temperature: 21.1°C (70°F)
Dewpoint: 17.8°C (64°F) [RH = 81%]
Pressure (altimeter): 29.94 inches Hg (1014.0 mb)
[Sea-level pressure: 1012.7 mb]
Winds: from the W (270 degrees) at 5 MPH (4 knots; 2.1 m/s)
Visibility: 10 or more miles (16+ km)
Ceiling: at least 12,000 feet AGL
Clouds: sky clear below 12,000 feet AGL
Weather: automated observation with no human augmentation;
there may or may not be significant weather present at this time

METAR text: KDUJ 182353Z AUTO 30005KT 10SM FEW047 22/18 A2993 RMK AO2 SLP125 T02170183 10256 20217 53009
Conditions at: KDUJ (DU BOIS , PA, US) observed 2353 UTC 18 September 2018
Temperature: 21.7°C (71°F)
Dewpoint: 18.3°C (65°F) [RH = 81%]
Pressure (altimeter): 29.93 inches Hg (1013.6 mb)
[Sea-level pressure: 1012.5 mb]
Winds: from the WNW (300 degrees) at 6 MPH (5 knots; 2.6 m/s)
Visibility: 10 or more miles (16+ km)
Ceiling: at least 12,000 feet AGL
Clouds: few clouds at 4700 feet AGL
Weather: automated observation with no human augmentation;
there may or may not be significant weather present at this time

METAR text: KDUJ 182253Z AUTO 28006KT 10SM CLR 23/18 A2992 RMK AO2 SLP121 T02280183
Conditions at: KDUJ (DU BOIS , PA, US) observed 2253 UTC 18 September 2018
Temperature: 22.8°C (73°F)
Dewpoint: 18.3°C (65°F) [RH = 76%]
Pressure (altimeter): 29.92 inches Hg (1013.3 mb)
[Sea-level pressure: 1012.1 mb]
Winds: from the W (280 degrees) at 7 MPH (6 knots; 3.1 m/s)
Visibility: 10 or more miles (16+ km)
Ceiling: at least 12,000 feet AGL
Clouds: sky clear below 12,000 feet AGL
Weather: automated observation with no human augmentation;
there may or may not be significant weather present at this time

METAR text: KDUJ 182153Z AUTO 29008KT 10SM CLR 24/18 A2991 RMK AO2 SLP116 T02440183
Conditions at: KDUJ (DU BOIS , PA, US) observed 2153 UTC 18 September 2018
Temperature: 24.4°C (76°F)
Dewpoint: 18.3°C (65°F) [RH = 69%]
Pressure (altimeter): 29.91 inches Hg (1013.0 mb)
[Sea-level pressure: 1011.6 mb]
Winds: from the WNW (290 degrees) at 9 MPH (8 knots; 4.1 m/s)
Visibility: 10 or more miles (16+ km)
Ceiling: at least 12,000 feet AGL
Clouds: sky clear below 12,000 feet AGL
Weather: automated observation with no human augmentation;
there may or may not be significant weather present at this time

METAR text: KDUJ 182053Z AUTO 29008KT 10SM FEW029 FEW036 25/19 A2990 RMK AO2 SLP113 T02500189 55010
Conditions at: KDUJ (DU BOIS , PA, US) observed 2053 UTC 18 September 2018
Temperature: 25.0°C (77°F)
Dewpoint: 18.9°C (66°F) [RH = 69%]
Pressure (altimeter): 29.90 inches Hg (1012.6 mb)
[Sea-level pressure: 1011.3 mb]
Winds: from the WNW (290 degrees) at 9 MPH (8 knots; 4.1 m/s)
Visibility: 10 or more miles (16+ km)
Ceiling: at least 12,000 feet AGL
Clouds: few clouds at 2900 feet AGL
few clouds at 3600 feet AGL
Weather: automated observation with no human augmentation;
there may or may not be significant weather present at this time

METAR text: KDUJ 181953Z AUTO 29008KT 10SM SCT026 SCT035 25/19 A2990 RMK AO2 SLP112 T02500189
Conditions at: KDUJ (DU BOIS , PA, US) observed 1953 UTC 18 September 2018
Temperature: 25.0°C (77°F)
Dewpoint: 18.9°C (66°F) [RH = 69%]
Pressure (altimeter): 29.90 inches Hg (1012.6 mb)
[Sea-level pressure: 1011.2 mb]
Winds: from the WNW (290 degrees) at 9 MPH (8 knots; 4.1 m/s)
Visibility: 10 or more miles (16+ km)
Ceiling: at least 12,000 feet AGL
Clouds: scattered clouds at 2600 feet AGL
scattered clouds at 3500 feet AGL
Weather: automated observation with no human augmentation;
there may or may not be significant weather present at this time

METAR text: KDUJ 181946Z AUTO 28012KT 10SM BKN026 BKN044 25/19 A2991 RMK AO2 T02500189
Conditions at: KDUJ (DU BOIS , PA, US) observed 1946 UTC 18 September 2018
Temperature: 25.0°C (77°F)
Dewpoint: 18.9°C (66°F) [RH = 69%]
Pressure (altimeter): 29.91 inches Hg (1013.0 mb)
Winds: from the W (280 degrees) at 14 MPH (12 knots; 6.2 m/s)
Visibility: 10 or more miles (16+ km)
Ceiling: 2600 feet AGL
Clouds: broken clouds at 2600 feet AGL
broken clouds at 4400 feet AGL
Weather: automated observation with no human augmentation;
there may or may not be significant weather present at this time

METAR text: KDUJ 181922Z AUTO 29007KT 10SM SCT026 BKN047 24/18 A2991 RMK AO2 T02390183
Conditions at: KDUJ (DU BOIS , PA, US) observed 1922 UTC 18 September 2018
Temperature: 23.9°C (75°F)
Dewpoint: 18.3°C (65°F) [RH = 71%]
Pressure (altimeter): 29.91 inches Hg (1013.0 mb)
Winds: from the WNW (290 degrees) at 8 MPH (7 knots; 3.6 m/s)
Visibility: 10 or more miles (16+ km)
Ceiling: 4700 feet AGL
Clouds: scattered clouds at 2600 feet AGL
broken clouds at 4700 feet AGL
Weather: automated observation with no human augmentation;
there may or may not be significant weather present at this time

METAR text: KDUJ 181911Z AUTO 30006KT 10SM BKN024 BKN031 24/19 A2992 RMK AO2 T02440189
Conditions at: KDUJ (DU BOIS , PA, US) observed 1911 UTC 18 September 2018
Temperature: 24.4°C (76°F)
Dewpoint: 18.9°C (66°F) [RH = 71%]
Pressure (altimeter): 29.92 inches Hg (1013.3 mb)
Winds: from the WNW (300 degrees) at 7 MPH (6 knots; 3.1 m/s)
Visibility: 10 or more miles (16+ km)
Ceiling: 2400 feet AGL
Clouds: broken clouds at 2400 feet AGL
broken clouds at 3100 feet AGL
Weather: automated observation with no human augmentation;
there may or may not be significant weather present at this time

METAR text: KDUJ 181853Z AUTO 31006KT 10SM SCT024 24/18 A2991 RMK AO2 SLP116 T02440183
Conditions at: KDUJ (DU BOIS , PA, US) observed 1853 UTC 18 September 2018
Temperature: 24.4°C (76°F)
Dewpoint: 18.3°C (65°F) [RH = 69%]
Pressure (altimeter): 29.91 inches Hg (1013.0 mb)
[Sea-level pressure: 1011.6 mb]
Winds: from the NW (310 degrees) at 7 MPH (6 knots; 3.1 m/s)
Visibility: 10 or more miles (16+ km)
Ceiling: at least 12,000 feet AGL
Clouds: scattered clouds at 2400 feet AGL
Weather: automated observation with no human augmentation;
there may or may not be significant weather present at this time

METAR text: KDUJ 181808Z AUTO 30009G15KT 10SM FEW021 SCT027 BKN042 24/19 A2993 RMK AO2 T02440189
Conditions at: KDUJ (DU BOIS , PA, US) observed 1808 UTC 18 September 2018
Temperature: 24.4°C (76°F)
Dewpoint: 18.9°C (66°F) [RH = 71%]
Pressure (altimeter): 29.93 inches Hg (1013.6 mb)
Winds: from the WNW (300 degrees) at 10 MPH (9 knots; 4.6 m/s)
gusting to 17 MPH (15 knots; 7.7 m/s)
Visibility: 10 or more miles (16+ km)
Ceiling: 4200 feet AGL
Clouds: few clouds at 2100 feet AGL
scattered clouds at 2700 feet AGL
broken clouds at 4200 feet AGL
Weather: automated observation with no human augmentation;
there may or may not be significant weather present at this time

METAR text: KDUJ 181753Z AUTO 29008KT 10SM SCT021 BKN027 BKN033 23/18 A2993 RMK AO2 SLP125 T02280183 10233 20172 55005
Conditions at: KDUJ (DU BOIS , PA, US) observed 1753 UTC 18 September 2018
Temperature: 22.8°C (73°F)
Dewpoint: 18.3°C (65°F) [RH = 76%]
Pressure (altimeter): 29.93 inches Hg (1013.6 mb)
[Sea-level pressure: 1012.5 mb]
Winds: from the WNW (290 degrees) at 9 MPH (8 knots; 4.1 m/s)
Visibility: 10 or more miles (16+ km)
Ceiling: 2700 feet AGL
Clouds: scattered clouds at 2100 feet AGL
broken clouds at 2700 feet AGL
broken clouds at 3300 feet AGL
Weather: automated observation with no human augmentation;
there may or may not be significant weather present at this time

Forecast for: KDUJ (DU BOIS , PA, US)
Text: KDUJ 191449Z 1915/2012 31004KT P6SM SCT025 BKN100
Forecast period: 1500 to 2000 UTC 19 September 2018
Forecast type: FROM: standard forecast or significant change
Winds: from the NW (310 degrees) at 5 MPH (4 knots; 2.1 m/s)
Visibility: 6 or more miles 10+ km)
Ceiling: 10000 feet AGL
Clouds: scattered clouds at 2500 feet AGL
broken clouds at 10000 feet AGL
Weather: no significant weather forecast for this period
Text: FM192000 VRB05KT P6SM SKC
Forecast period: 2000 UTC 19 September 2018 to 0500 UTC 20 September 2018
Forecast type: FROM: standard forecast or significant change
Winds: variable direction winds at 6 MPH (5 knots; 2.6 m/s)
Visibility: 6 or more miles 10+ km)
Clouds: clear skies
Weather: no significant weather forecast for this period
Text: FM200500 08002KT 4SM BR SKC
Forecast period: 0500 to 0800 UTC 20 September 2018
Forecast type: FROM: standard forecast or significant change
Winds: from the E (80 degrees) at 2 MPH (2 knots; 1.0 m/s)
Visibility: 4 miles (6 km)
Clouds: clear skies
Weather: BR  (mist)
Text: FM200800 09002KT 1/2SM FG SKC
Forecast period: 0800 to 1200 UTC 20 September 2018
Forecast type: FROM: standard forecast or significant change
Winds: from the E (90 degrees) at 2 MPH (2 knots; 1.0 m/s)
Visibility: 0.50 miles (0.80 km)
Clouds: clear skies
Weather: FG  (fog)